Terminal Aerodrome Forecast
Issued by NWS Wakefield, VA

Home | Current Version | Previous Version | Text Only | Print | Product List | Glossary On
Versions: 1 2 3 4 5 6 7 8 9 10 11 12 13 14
235
FTUS41 KAKQ 272106 AAA
TAFECG
TAF AMD
KECG 272106Z 2721/2818 14010KT P6SM SCT060
     FM280000 16005KT P6SM SCT250
     FM280800 14004KT P6SM SCT004 SCT250
     FM281300 10006KT P6SM SCT250=

USA.gov is the U.S. government's official web portal to all federal, state and local government web resources and services.